Misratah, Libya
Current Conditions -  °F | °C
As of 8:50 AM on Thursday 23 Oct 2014 (Local Time) from HLLM Reporting Station
Broken Clouds Broken Clouds  
Wind Chill: 72°   Ceiling: 3000
Heat Index: 72°   Visibility: 5mi
Dew Point: 52°   Wind: 9mph
Humidity: 50%   Direction: 310°NW
Pressure: 29.97"   Gusts: NA
Location:  32.38°N, 15.09°E
Report Text: HLLM 230550Z 31008KT 8000 BKN030 22/11 Q1015
Loading
Personal Weather Stations






























Interactive Weather Map New forecast layout! Learn more

10-Day Weather Forecast

Advertisements
Track Severe Weather on mobile